RPLL/MNL METAR and TAF weather

Enter ICAO airport designator
Station Type Date Time Source
RPLL METAR 2020/04/01 23:00 UTC NOAA

RPLL 012300Z 08004KT 060V130 9999 FEW025 28/23 Q1014 NOSIG RMK A2994


Station Type Date Time Source
RPLL Decoded METAR 2020/04/01 23:00 UTC NOAA

Ninoy Aquino Inter-National Airport, Philippines (RPLL) 14-31N 121-00E 15M
Apr 01, 2020 - 07:00 PM EDT / 2020.04.01 2300 UTC
Wind: from the E (080 degrees) at 5 MPH (4 KT) (direction variable):0
Visibility: greater than 7 mile(s):0
Sky conditions: mostly clear
Temperature: 82 F (28 C)
Dew Point: 73 F (23 C)
Relative Humidity: 74%
Pressure (altimeter): 29.94 in. Hg (1014 hPa)
ob: RPLL 012300Z 08004KT 060V130 9999 FEW025 28/23 Q1014 NOSIG RMK A2994
cycle: 23

Station Type Date Time Source
RPLL TAF 2020/04/01 18:00 UTC NOAA

TAF RPLL 011700Z 0118/0224 11008KT 9999 FEW025 TX35/0206Z TN26/0121Z
TEMPO 0118/0124 08006KT
TEMPO 0203/0209 13016KT

Example: see airport list